Soaring Guidance
Issued by NWS Reno, NV

Home | Current Version | Previous Version | Text Only | Print | Product List | Glossary On
Versions: 1 2 3 4 5 6 7 8 9 10 11 12
072
UXUS97 KREV 121447
SRGREV

SOARING FORECAST
NATIONAL WEATHER SERVICE - RENO NV
700 AM PST FRI FEB 12 2016

THIS SOARING FORECAST IS FOR THE EASTERN SIERRA AND WESTERN NEVADA
WITH SPECIFIC INDICES FOR THE GREATER RENO AREA.

THIS FORECAST IS PREPARED DAILY BY 700 AM AND IS NOT UPDATED.

FOR CURRENT FLIGHT CONDITIONS...FORECASTS...AND ADVISORIES...ACCESS
YOUR LOCAL BRIEFING OUTLET OR FLIGHT SERVICE STATION.

*******************************************************************
FORECASTED LOCAL INDICES FOR RENO:        TODAY     YESTERDAY
FORECASTED MAX TEMP AT RENO (DEG F).....     63          58
FORECASTED TRIGGER TEMPERATURE (DEG F)..     63          68
   EXCEEDED YESTERDAY BY
FORECASTED MAXIMUM ALTITUDE (FT MSL)....   8500        7600
FORECASTED SOARING INDEX (FPM)..........    285         198
FORECASTED K-INDEX.........VALID 18Z....     -4           1
FORECASTED K-INDEX.........VALID 00Z....      1          -5
FORECASTED LIFTED INDEX....VALID 18Z....      9          10
FORECASTED LIFTED INDEX....VALID 00Z....      7           8

AFTERNOON WINDS ALOFT FORECAST
MSL (FT) WIND/TEMP
9000  2518/+05
10000 2419/+03
12000 2420/-01
14000 2422/-06
16000 2425/-11
18000 2434/-16
24000 2347/-28
30000 2354/-45
34000 2461/-54
39000 2359/-65

SLIDE MOUNTAIN DATA:
     DATE       TIME     TEMP  DEWPT   RH         WIND (MPH)
                        (F)   (F)           | DIR  SPEED GUST
2016-02-12    05:20      36     7     18    | 259   29   33
2016-02-12    05:00      36     7     19    | 258   29   35
2016-02-12    04:50      36     7     19    | 257   30   37
2016-02-12    04:30      36     7     19    | 259   31   37

RENO TAF FORECAST:
KRNO 121120Z 1212/1312 VRB04KT P6SM BKN150 OVC200

CARSON CITY TAF FORECAST:
KCXP 121120Z 1212/1312 VRB04KT P6SM SCT150 BKN200
     FM122100 08008KT P6SM SCT150 BKN200
     FM130100 VRB03KT P6SM BKN150 OVC200

OUTLOOK FOR THE RENO-CARSON CITY-MINDEN AREA:
.SATURDAY...PARTLY CLOUDY IN THE MORNING THEN CLEARING. HIGHS
58 TO 63. WEST WINDS AROUND 10 MPH IN THE MORNING BECOMING LIGHT.

SUNRISE AND SUNSET
FEBRUARY 12 2016......SUNRISE   655 AM PST   SUNSET   532 PM PST
FEBRUARY 13 2016......SUNRISE   654 AM PST   SUNSET   533 PM PST



USA.gov is the U.S. government's official web portal to all federal, state and local government web resources and services.